• Join FlightAware (Why Join?)
  • Login
  • US Flag 
05:23PM EDT


 

Airport Tracker/Info


-or-


 

Live Flight TrackerFlight Track Log ✈ N6600L ✈ 30-Jul-2013 ✈ CYML - KPSM

Flight Track Log - Related Links

Times and Time Zones

All times are in EDT time to prevent confusion due to time zone crossing. See the N6600L flight status page for this flight to view local times or setup timezone preferences in your user account.

Time Position Orientation Groundspeed Altitude Reporting Facility
EDT Latitude Longitude Course Direction KTS MPH feet Rate Location/Type
10:19AM 47.4500 -70.2833 229° Southwest 120 138 4,700  Level Montreal Center
10:20AM 47.4167 -70.2833 180° South 120 138 5,300 600 Climbing Montreal Center
10:21AM 47.4000 -70.3000 214° Southwest 120 138 6,000 300 Climbing Montreal Center
10:22AM 47.2527 -70.2732 205° Southwest  Level Estimated
10:22AM 47.3833 -70.3667 250° West 140 161 6,000  Level Montreal Center
10:23AM 47.2242 -70.3211 229° Southwest  Level FlightAware Approximate
10:23AM 47.3333 -70.3833 193° South 150 173 6,000  Level Montreal Center
10:24AM 47.1955 -70.3689 229° Southwest  Level FlightAware Approximate
10:24AM 47.3000 -70.4167 214° Southwest 150 173 6,000  Level Montreal Center
10:25AM 47.2667 -70.4500 214° Southwest 160 184 6,000  Level Montreal Center
10:27AM 47.1667 -70.4667 186° South 150 173 6,000  Level Montreal Center
10:28AM 47.1333 -70.4667 180° South 160 184 6,000  Level Montreal Center
10:29AM 47.0833 -70.4667 180° South 160 184 6,000  Level Montreal Center
10:30AM 47.0500 -70.4667 180° South 160 184 6,100  Climbing Montreal Center
10:31AM 47.0000 -70.4833 193° South 160 184 6,000 -60 Descending Montreal Center
10:32AM 46.9500 -70.4833 180° South 160 184 6,000  Level Montreal Center
10:33AM 46.9167 -70.4833 180° South 160 184 6,000  Level Montreal Center
10:34AM 46.8667 -70.4667 167° South 160 184 6,000  Level Montreal Center
10:35AM 46.8167 -70.4667 180° South 160 184 6,000 240 Level Montreal Center
10:36AM 46.7833 -70.4833 199° South 150 173 6,500 720 Climbing Montreal Center
10:37AM 46.7500 -70.4833 180° South 100 115 7,500 780 Climbing Montreal Center
10:38AM 46.7167 -70.4833 180° South 110 127 8,100 240 Climbing Montreal Center
10:39AM 46.6833 -70.4833 180° South 140 161 8,000  Descending Montreal Center
10:40AM 46.6333 -70.5000 193° South 150 173 8,100  Climbing Montreal Center
10:41AM 46.6000 -70.5000 180° South 160 184 8,100  Level Montreal Center
10:42AM 46.5500 -70.5000 180° South 160 184 8,100  Level Montreal Center
10:43AM 46.5000 -70.5000 180° South 150 173 8,100  Level Montreal Center
10:44AM 46.4667 -70.5167 199° South 160 184 8,100  Level Montreal Center
10:45AM 46.4167 -70.5167 180° South 160 184 8,100  Level Montreal Center
10:46AM 46.3667 -70.5167 180° South 160 184 8,100  Level Montreal Center
10:47AM 46.3333 -70.5167 180° South 160 184 8,100  Level Montreal Center
10:48AM 46.2833 -70.5333 193° South 160 184 8,100  Level Montreal Center
10:49AM 46.2333 -70.5333 180° South 160 184 8,100  Level Montreal Center
10:50AM 46.2000 -70.5667 215° Southwest 160 184 8,100  Level Montreal Center
10:51AM 46.1500 -70.5667 180° South 150 173 8,100  Level Montreal Center
10:52AM 46.1167 -70.5667 180° South 150 173 8,100  Level Montreal Center
10:53AM 46.0667 -70.5833 193° South 150 173 8,100  Level Montreal Center
10:54AM 46.0167 -70.5833 180° South 160 184 8,100  Level Montreal Center
10:55AM 45.9833 -70.5833 180° South 150 173 8,100  Level Montreal Center
10:56AM 45.9333 -70.5833 180° South 150 173 8,100  Level Montreal Center
10:57AM 45.9000 -70.6167 215° Southwest 150 173 8,100  Level Montreal Center
10:58AM 45.8500 -70.6167 180° South 150 173 8,100  Level Montreal Center
10:59AM 45.8167 -70.6333 199° South 160 184 8,100  Level Montreal Center
11:00AM 45.7667 -70.6333 180° South 160 184 8,100  Level Montreal Center
11:01AM 45.7167 -70.6333 180° South 150 173 8,200  Climbing Montreal Center
11:02AM 45.6833 -70.6667 215° Southwest 150 173 8,200  Level Montreal Center
11:03AM 45.6333 -70.6667 180° South 160 184 8,200 -60 Level Montreal Center
11:04AM 45.5981 -70.6903 205° Southwest 160 184 8,100 -60 Descending Boston Center
11:05AM 45.5503 -70.7036 191° South 160 184 8,100  Level Boston Center
11:06AM 45.5064 -70.7019 178° South 160 184 8,100  Level Boston Center
11:07AM 45.4608 -70.7061 184° South 160 184 8,100  Level Boston Center
11:08AM 45.4169 -70.7075 181° South 160 184 8,100  Level Boston Center
11:09AM 45.3797 -70.7117 184° South 160 184 8,100  Level Boston Center
11:10AM 45.3233 -70.7133 181° South 160 184 8,100  Level Boston Center
11:11AM 45.2775 -70.7147 181° South 160 184 8,100  Level Boston Center
11:12AM 45.2339 -70.7158 181° South 160 184 8,100  Level Boston Center
11:13AM 45.1903 -70.7203 184° South 160 184 8,100  Level Boston Center
11:14AM 45.1444 -70.7217 181° South 160 184 8,100  Level Boston Center
11:15AM 45.0986 -70.7228 181° South 160 184 8,100  Level Boston Center
11:16AM 45.0528 -70.7272 184° South 160 184 8,100  Level Boston Center
11:17AM 45.0069 -70.7286 181° South 165 190 8,100  Level Boston Center
11:18AM 44.9592 -70.7300 181° South 165 190 8,100  Level Boston Center
11:19AM 44.9153 -70.7311 181° South 165 190 8,100  Level Boston Center
11:20AM 44.8694 -70.7325 181° South 160 184 8,100  Level Boston Center
11:21AM 44.8239 -70.7369 184° South 160 184 8,100  Level Boston Center
11:22AM 44.7800 -70.7381 181° South 160 184 8,100  Level Boston Center
11:23AM 44.7322 -70.7425 184° South 165 190 8,100  Level Boston Center
11:24AM 44.6864 -70.7436 181° South 165 190 8,100  Level Boston Center
11:25AM 44.6406 -70.7450 181° South 165 190 8,100  Level Boston Center
11:26AM 44.5947 -70.7464 181° South 165 190 8,100  Level Boston Center
11:27AM 44.5489 -70.7506 184° South 165 190 8,100  Level Boston Center
11:28AM 44.5053 -70.7519 181° South 160 184 8,100  Level Boston Center
11:29AM 44.4594 -70.7589 186° South 160 184 8,100  Level Boston Center
11:30AM 44.4200 -70.7600 181° South 160 184 8,100  Level Boston Center
11:31AM 44.3678 -70.7617 181° South 160 184 8,100  Level Boston Center
11:32AM 44.3261 -70.7656 184° South 160 184 8,100  Level Boston Center
11:33AM 44.2764 -70.7669 181° South 160 184 8,100  Level Boston Center
11:34AM 44.2347 -70.7683 181° South 160 184 8,100  Level Boston Center
11:35AM 44.1847 -70.7725 183° South 160 184 8,100  Level Boston Center
11:36AM 44.1431 -70.7736 181° South 160 184 8,100  Level Boston Center
11:37AM 44.0931 -70.7781 184° South 160 184 8,100  Level Boston Center
11:38AM 44.0492 -70.7792 181° South 165 190 8,100  Level Boston Center
11:39AM 43.9972 -70.7806 181° South 170 196 8,100  Level Boston Center
11:41AM 43.9014 -70.7861 182° South 175 201 8,100  Level Boston Center
11:42AM 43.8431 -70.7878 181° South 175 201 8,100  Level Boston Center
11:44AM 43.7842 -70.7869 179° South  Level FlightAware Approximate
11:48AM 43.5833 -70.8000 190° South 169 194 8,100  Level KA90
11:49AM 43.5167 -70.8000 180° South 170 196 8,100  Level KA90
11:50AM 43.4833 -70.8000 180° South 170 196 8,100  Level KA90
11:51AM 43.4926 -70.7833 180° South  Level FlightAware Approximate
11:51AM 43.4333 -70.8000 180° South 170 196 8,100  Level KA90
11:52AM 43.4510 -70.7833 180° South  Level FlightAware Approximate
11:52AM 43.3833 -70.8000 180° South 168 193 7,900  Level KA90
11:53AM 43.4098 -70.7892 190° South  Level FlightAware Approximate
11:53AM 43.3333 -70.8167 194° South 164 189 7,100  Level KA90
11:54AM 43.2833 -70.8000 166° South 174 200 6,400 -660 Descending KA90
11:55AM 43.2333 -70.7833 166° South 180 207 5,800 -600 Descending KA90
11:56AM 43.2000 -70.7667 160° South 172 198 5,200 -660 Descending KA90
11:57AM 43.1500 -70.7500 166° South 174 200 4,500 -660 Descending KA90
11:58AM 43.1167 -70.7167 144° Southeast 165 190 3,900 -600 Descending KA90
11:59AM 43.0667 -70.6833 154° Southeast 165 190 3,400 -600 Descending KA90
12:00PM 43.0333 -70.6500 144° Southeast 164 189 2,800 -600 Descending KA90
12:01PM 43.0000 -70.6000 132° Southeast 165 190 2,300 -360 Descending KA90
12:02PM 42.9667 -70.6167 200° South 137 158 2,100 -120 Descending KA90
12:03PM 42.9333 -70.6667 228° Southwest 126 145 2,100  Level KA90
12:04PM 42.9500 -70.7167 294° West 127 146 2,100  Level KA90
12:05PM 42.9667 -70.7333 324° Northwest 125 144 2,100 -300 Level KA90
12:06PM 43.0000 -70.7500 340° North 110 127 1,600 -540 Descending KA90
12:07PM 43.0167 -70.7833 304° West 106 122 1,000 -480 Descending KA90
12:08PM 43.0500 -70.7833 360° North 97 112 700 -360 Descending KA90
12:10PM 43.0667 -70.8167 285° West  Level FlightAware Approximate